createdAt,value
2019-02-19T00:01:43.423Z,96.70
2019-02-19T00:04:10.603Z,84.63
2019-02-19T00:06:37.721Z,84.90
2019-02-19T00:09:05.962Z,86.77
2019-02-19T00:11:33.106Z,83.73
2019-02-19T00:14:00.262Z,81.97
2019-02-19T00:16:27.423Z,92.43
2019-02-19T00:18:54.502Z,88.73
2019-02-19T00:21:21.823Z,92.90
2019-02-19T00:23:49.023Z,94.63
2019-02-19T00:26:17.582Z,100.47
2019-02-19T00:28:44.702Z,105.27
2019-02-19T00:31:11.804Z,105.73
2019-02-19T00:33:38.972Z,117.63
2019-02-19T00:36:07.102Z,114.63
2019-02-19T00:38:34.222Z,110.43
2019-02-19T00:41:01.342Z,104.03
2019-02-19T00:43:30.282Z,107.67
2019-02-19T00:45:57.382Z,107.17
2019-02-19T00:48:24.482Z,102.73
2019-02-19T00:50:51.603Z,96.47
2019-02-19T00:53:18.762Z,98.03
2019-02-19T00:55:45.982Z,100.63
2019-02-19T00:58:13.144Z,98.70
2019-02-19T01:00:40.306Z,105.40
2019-02-19T01:03:07.466Z,93.03
2019-02-19T01:05:34.642Z,93.10
2019-02-19T01:08:01.782Z,89.63
2019-02-19T01:10:28.962Z,94.67
2019-02-19T01:12:56.043Z,86.17
2019-02-19T01:15:25.410Z,87.70
2019-02-19T01:17:52.267Z,85.33
2019-02-19T01:20:19.423Z,81.37
2019-02-19T01:22:46.582Z,75.47
2019-02-19T01:25:13.662Z,76.13
2019-02-19T01:27:40.803Z,70.27
2019-02-19T01:30:09.842Z,63.60
2019-02-19T01:32:36.923Z,69.37
2019-02-19T01:35:05.645Z,69.20
2019-02-19T01:37:32.905Z,68.97
2019-02-19T01:40:00.043Z,66.77
2019-02-19T01:42:27.163Z,70.30
2019-02-19T01:44:54.302Z,75.63
2019-02-19T01:47:21.423Z,76.87
2019-02-19T01:49:48.583Z,76.73
2019-02-19T01:52:15.683Z,78.00
2019-02-19T01:54:42.882Z,72.13
2019-02-19T01:57:10.009Z,78.27
2019-02-19T01:59:37.143Z,72.13
2019-02-19T02:02:04.203Z,63.87
2019-02-19T02:04:31.345Z,61.30
2019-02-19T02:06:58.482Z,69.30
2019-02-19T02:09:25.602Z,69.93
2019-02-19T02:11:52.762Z,69.57
2019-02-19T02:14:19.923Z,70.10
2019-02-19T02:16:47.064Z,65.60
2019-02-19T02:19:14.167Z,68.03
2019-02-19T02:21:41.322Z,68.53
2019-02-19T02:24:08.445Z,71.20
2019-02-19T02:26:35.604Z,71.03
2019-02-19T02:29:22.403Z,67.63
2019-02-19T02:31:49.562Z,68.30
2019-02-19T02:34:16.645Z,70.70
2019-02-19T02:36:43.710Z,76.23
2019-02-19T02:39:10.863Z,72.87
2019-02-19T02:41:38.023Z,72.20
2019-02-19T02:44:05.145Z,70.40
2019-02-19T02:46:32.283Z,65.73
2019-02-19T02:48:59.383Z,73.33
2019-02-19T02:51:26.547Z,76.37
2019-02-19T02:53:53.643Z,72.03
2019-02-19T02:56:20.723Z,65.77
2019-02-19T02:58:47.884Z,68.50
2019-02-19T03:01:14.965Z,67.90
2019-02-19T03:03:42.082Z,66.87
2019-02-19T03:06:22.984Z,66.53
2019-02-19T03:08:50.080Z,62.30
2019-02-19T03:11:17.190Z,57.97
2019-02-19T03:14:04.064Z,61.00
2019-02-19T03:16:31.184Z,62.70
2019-02-19T03:18:58.342Z,56.80
2019-02-19T03:21:25.462Z,56.60
2019-02-19T03:23:52.805Z,60.50
2019-02-19T03:26:19.903Z,59.20
2019-02-19T03:28:47.003Z,51.87
2019-02-19T03:31:14.092Z,56.97
2019-02-19T03:33:41.244Z,57.90
2019-02-19T03:36:08.332Z,55.10
2019-02-19T03:38:35.582Z,53.93
2019-02-19T03:41:02.783Z,54.80
2019-02-19T03:43:30.215Z,50.33
2019-02-19T03:45:57.302Z,49.63
2019-02-19T03:48:24.422Z,52.77
2019-02-19T03:50:51.543Z,49.40
2019-02-19T03:53:18.645Z,48.20
2019-02-19T03:55:46.063Z,53.87
2019-02-19T03:58:13.388Z,57.90
2019-02-19T04:00:40.522Z,54.70
2019-02-19T04:03:07.625Z,65.10
2019-02-19T04:05:35.045Z,51.47
2019-02-19T04:08:02.122Z,57.50
2019-02-19T04:10:29.265Z,49.17
2019-02-19T04:12:56.405Z,55.20
2019-02-19T04:15:23.781Z,52.90
2019-02-19T04:17:50.982Z,52.07
2019-02-19T04:20:18.103Z,49.90
2019-02-19T04:22:45.206Z,52.17
2019-02-19T04:25:12.343Z,50.57
2019-02-19T04:27:39.502Z,53.33
2019-02-19T04:30:08.284Z,50.30
2019-02-19T04:32:35.381Z,50.60
2019-02-19T04:35:04.142Z,47.63
2019-02-19T04:37:31.286Z,48.00
2019-02-19T04:39:58.404Z,51.43
2019-02-19T04:42:25.522Z,49.17
2019-02-19T04:44:52.702Z,48.17
2019-02-19T04:47:19.848Z,48.93
2019-02-19T04:49:46.982Z,51.83
2019-02-19T04:52:14.142Z,52.07
2019-02-19T04:54:41.263Z,49.10
2019-02-19T04:57:08.445Z,46.60
2019-02-19T04:59:35.538Z,46.67
2019-02-19T05:02:02.663Z,50.10
2019-02-19T05:04:29.783Z,59.27
2019-02-19T05:06:57.065Z,49.47
2019-02-19T05:09:24.223Z,49.53
2019-02-19T05:11:51.344Z,47.37
2019-02-19T05:14:18.424Z,45.27
2019-02-19T05:16:45.522Z,51.97
2019-02-19T05:19:12.686Z,47.70
2019-02-19T05:21:39.864Z,44.57
2019-02-19T05:24:06.924Z,42.33
2019-02-19T05:26:33.962Z,41.27
2019-02-19T05:29:01.145Z,39.13
2019-02-19T05:31:28.253Z,44.73
2019-02-19T05:33:55.339Z,43.33
2019-02-19T05:36:22.468Z,39.87
2019-02-19T05:38:49.644Z,39.47
2019-02-19T05:41:16.722Z,44.43
2019-02-19T05:43:43.903Z,49.70
2019-02-19T05:46:11.044Z,47.47
2019-02-19T05:48:38.200Z,45.63
2019-02-19T05:51:05.368Z,45.73
2019-02-19T05:53:32.483Z,45.47
2019-02-19T05:55:59.704Z,40.93
2019-02-19T05:58:26.844Z,43.67
2019-02-19T06:00:53.963Z,46.60
2019-02-19T06:03:21.164Z,46.37
2019-02-19T06:05:48.224Z,43.07
2019-02-19T06:08:15.383Z,47.47
2019-02-19T06:10:44.238Z,43.43
2019-02-19T06:13:12.022Z,49.77
2019-02-19T06:15:39.161Z,44.47
2019-02-19T06:18:06.264Z,43.10
2019-02-19T06:20:33.367Z,46.20
2019-02-19T06:23:00.783Z,43.57
2019-02-19T06:25:27.871Z,44.77
2019-02-19T06:27:57.148Z,45.07
2019-02-19T06:30:24.225Z,42.03
2019-02-19T06:32:51.424Z,44.20
2019-02-19T06:35:18.504Z,37.00
2019-02-19T06:37:45.603Z,35.87
2019-02-19T06:40:27.944Z,38.83
2019-02-19T06:42:55.063Z,38.73
2019-02-19T06:45:22.283Z,38.03
2019-02-19T06:47:49.426Z,38.67
2019-02-19T06:50:16.543Z,37.77
2019-02-19T06:52:43.662Z,34.60
2019-02-19T06:55:10.803Z,36.03
2019-02-19T06:57:37.903Z,35.87
2019-02-19T07:00:12.043Z,34.57
2019-02-19T07:02:49.924Z,43.70
2019-02-19T07:05:18.844Z,34.20
2019-02-19T07:07:45.963Z,40.70
2019-02-19T07:10:13.103Z,37.37
2019-02-19T07:12:40.162Z,39.50
2019-02-19T07:15:08.542Z,41.63
2019-02-19T07:17:35.603Z,36.00
2019-02-19T07:20:06.262Z,39.10
2019-02-19T07:22:33.422Z,35.77
2019-02-19T07:25:00.543Z,38.30
2019-02-19T07:27:27.803Z,33.90
2019-02-19T07:29:54.965Z,33.73
2019-02-19T07:32:22.043Z,37.67
2019-02-19T07:34:49.223Z,40.27
2019-02-19T07:37:16.323Z,38.23
2019-02-19T07:39:43.463Z,37.17
2019-02-19T07:42:10.582Z,39.60
2019-02-19T07:44:37.683Z,36.63
2019-02-19T07:47:04.862Z,37.53
2019-02-19T07:49:32.003Z,36.30
2019-02-19T07:51:59.183Z,36.83
2019-02-19T07:54:26.302Z,40.73
2019-02-19T07:56:53.445Z,41.60
2019-02-19T07:59:20.623Z,44.67
2019-02-19T08:01:47.946Z,46.97
2019-02-19T08:04:15.011Z,46.47
2019-02-19T08:06:42.203Z,45.23
2019-02-19T08:09:10.745Z,46.10
2019-02-19T08:11:37.848Z,45.03
2019-02-19T08:14:04.925Z,52.73
2019-02-19T08:16:32.043Z,50.30
2019-02-19T08:18:59.162Z,50.10
2019-02-19T08:21:26.325Z,54.53
2019-02-19T08:24:13.166Z,56.00
2019-02-19T08:26:40.363Z,56.97
2019-02-19T08:29:13.909Z,53.97
2019-02-19T08:31:36.484Z,49.03
2019-02-19T08:34:03.584Z,53.17
2019-02-19T08:36:30.804Z,51.30
2019-02-19T08:38:57.883Z,49.37
2019-02-19T08:41:25.065Z,55.10
2019-02-19T08:43:52.444Z,51.87
2019-02-19T08:46:19.644Z,56.67
2019-02-19T08:48:46.705Z,54.67
2019-02-19T08:51:13.883Z,51.03
2019-02-19T08:53:41.023Z,51.63
2019-02-19T08:56:08.235Z,45.27
2019-02-19T08:58:35.403Z,46.07
2019-02-19T09:01:02.515Z,49.43
2019-02-19T09:03:29.683Z,44.67
2019-02-19T09:05:56.770Z,37.97
2019-02-19T09:08:23.945Z,42.07
2019-02-19T09:10:51.024Z,40.73
2019-02-19T09:13:18.084Z,43.87
2019-02-19T09:15:45.189Z,39.40
2019-02-19T09:18:12.243Z,36.07
2019-02-19T09:20:39.342Z,38.13
2019-02-19T09:23:06.422Z,37.70
2019-02-19T09:25:33.523Z,35.53
2019-02-19T09:28:00.603Z,35.90
2019-02-19T09:30:27.742Z,30.83
2019-02-19T09:32:54.843Z,35.13
2019-02-19T09:35:21.997Z,33.23
2019-02-19T09:37:49.361Z,27.93
2019-02-19T09:40:16.523Z,24.60
2019-02-19T09:42:43.684Z,27.70
2019-02-19T09:45:10.922Z,26.70
2019-02-19T09:47:38.073Z,23.50
2019-02-19T09:50:11.243Z,21.10
2019-02-19T09:52:38.344Z,22.73
2019-02-19T09:55:25.183Z,21.93
2019-02-19T09:57:52.303Z,20.07
2019-02-19T10:00:19.465Z,20.57
2019-02-19T10:02:46.628Z,19.33
2019-02-19T10:05:13.756Z,18.77
2019-02-19T10:07:40.863Z,18.77
2019-02-19T10:10:15.216Z,21.17
2019-02-19T10:12:42.322Z,17.20
2019-02-19T10:15:12.727Z,18.57
2019-02-19T10:17:39.861Z,22.27
2019-02-19T10:20:09.703Z,19.57
2019-02-19T10:22:36.763Z,19.27
2019-02-19T10:25:09.123Z,19.13
2019-02-19T10:27:36.263Z,18.43
2019-02-19T10:30:14.463Z,20.90
2019-02-19T10:32:41.526Z,19.53
2019-02-19T10:35:10.803Z,22.30
2019-02-19T10:37:37.923Z,24.10
2019-02-19T10:40:17.983Z,20.30
2019-02-19T10:42:45.124Z,21.17
2019-02-19T10:45:18.766Z,19.90
2019-02-19T10:47:45.883Z,19.87
2019-02-19T10:50:12.975Z,21.50
2019-02-19T10:52:40.182Z,19.10
2019-02-19T10:55:09.442Z,19.80
2019-02-19T10:57:36.528Z,17.97
2019-02-19T11:00:10.765Z,19.90
2019-02-19T11:02:37.923Z,19.33
2019-02-19T11:05:08.421Z,19.23
2019-02-19T11:07:35.524Z,18.67
2019-02-19T11:10:06.643Z,17.93
2019-02-19T11:12:33.803Z,22.73
2019-02-19T11:15:00.925Z,19.93
2019-02-19T11:17:28.103Z,19.00
2019-02-19T11:19:55.203Z,19.03
2019-02-19T11:22:22.381Z,17.17
2019-02-19T11:24:49.502Z,18.53
2019-02-19T11:27:16.918Z,18.93
2019-02-19T11:29:44.023Z,17.97
2019-02-19T11:32:11.203Z,18.10
2019-02-19T11:34:38.642Z,17.80
2019-02-19T11:37:05.842Z,17.63
2019-02-19T11:39:33.005Z,20.80
2019-02-19T11:42:00.185Z,17.47
2019-02-19T11:44:27.251Z,17.00
2019-02-19T11:46:54.542Z,19.07
2019-02-19T11:49:21.703Z,17.63
2019-02-19T11:51:48.803Z,17.80
2019-02-19T11:54:15.923Z,19.70
2019-02-19T11:56:43.003Z,17.40
2019-02-19T11:59:10.290Z,18.43
2019-02-19T12:01:37.445Z,18.57
2019-02-19T12:04:04.583Z,18.43
2019-02-19T12:06:31.682Z,15.83
2019-02-19T12:08:58.803Z,18.47
2019-02-19T12:11:25.862Z,15.73
2019-02-19T12:13:53.001Z,19.10
2019-02-19T12:16:20.103Z,17.87
2019-02-19T12:18:47.223Z,18.60
2019-02-19T12:21:14.407Z,19.10
2019-02-19T12:23:41.603Z,18.97
2019-02-19T12:26:08.829Z,17.47
2019-02-19T12:28:36.002Z,19.07
2019-02-19T12:31:03.122Z,17.03
2019-02-19T12:33:30.502Z,18.83
2019-02-19T12:35:57.605Z,18.67
2019-02-19T12:38:24.723Z,21.33
2019-02-19T12:40:51.863Z,15.10
2019-02-19T12:43:18.983Z,15.83
2019-02-19T12:45:46.022Z,17.80
2019-02-19T12:48:13.123Z,20.30
2019-02-19T12:50:40.223Z,20.23
2019-02-19T12:53:07.283Z,17.60
2019-02-19T12:55:34.383Z,19.33
2019-02-19T12:58:01.507Z,17.67
2019-02-19T13:00:28.565Z,23.80
2019-02-19T13:02:55.703Z,17.80
2019-02-19T13:05:22.965Z,18.33
2019-02-19T13:07:50.062Z,19.47
2019-02-19T13:10:17.543Z,21.43
2019-02-19T13:12:44.603Z,17.00
2019-02-19T13:15:18.563Z,19.97
2019-02-19T13:17:45.763Z,20.40
2019-02-19T13:20:14.041Z,19.40
2019-02-19T13:22:41.185Z,16.53
2019-02-19T13:25:10.687Z,16.60
2019-02-19T13:27:38.103Z,21.30
2019-02-19T13:30:15.571Z,16.57
2019-02-19T13:32:42.682Z,20.33
2019-02-19T13:35:12.285Z,18.70
2019-02-19T13:37:39.422Z,19.13
2019-02-19T13:40:10.343Z,17.13
2019-02-19T13:42:37.483Z,16.97
2019-02-19T13:45:08.843Z,18.17
2019-02-19T13:47:35.983Z,19.57
2019-02-19T13:50:07.484Z,16.67
2019-02-19T13:52:36.442Z,17.27
2019-02-19T13:55:05.482Z,15.10
2019-02-19T13:57:32.602Z,15.93
2019-02-19T13:59:59.723Z,15.07
2019-02-19T14:02:26.820Z,17.53
2019-02-19T14:04:53.944Z,15.93
2019-02-19T14:07:21.264Z,14.50
2019-02-19T14:09:48.363Z,17.33
2019-02-19T14:12:15.463Z,15.07
2019-02-19T14:14:44.383Z,15.30
2019-02-19T14:17:11.542Z,17.37
2019-02-19T14:19:43.545Z,14.87
2019-02-19T14:22:29.124Z,16.23
2019-02-19T14:25:03.784Z,17.30
2019-02-19T14:27:32.765Z,16.07
2019-02-19T14:30:18.565Z,18.27
2019-02-19T14:33:02.874Z,14.90
2019-02-19T14:35:31.786Z,15.87
2019-02-19T14:38:17.583Z,13.83
2019-02-19T14:41:01.383Z,14.63
2019-02-19T14:43:48.261Z,14.33
2019-02-19T14:46:20.044Z,13.33
2019-02-19T14:48:55.043Z,14.20
2019-02-19T14:51:42.448Z,14.10
2019-02-19T14:54:11.406Z,12.63
2019-02-19T14:56:55.462Z,13.57
2019-02-19T14:59:27.223Z,12.77
2019-02-19T15:01:56.063Z,16.77
2019-02-19T15:04:41.845Z,13.47
2019-02-19T15:07:16.723Z,12.30
2019-02-19T15:09:45.683Z,14.07
2019-02-19T15:12:20.709Z,14.73
2019-02-19T15:14:52.483Z,13.00
2019-02-19T15:17:27.503Z,14.10
2019-02-19T15:20:05.385Z,15.13
2019-02-19T15:22:51.043Z,17.03
2019-02-19T15:25:36.583Z,15.30
2019-02-19T15:28:05.523Z,16.53
2019-02-19T15:30:43.582Z,15.47
2019-02-19T15:33:18.544Z,14.67
2019-02-19T15:35:47.622Z,14.00
2019-02-19T15:38:28.883Z,13.90
2019-02-19T15:41:06.684Z,13.80
2019-02-19T15:43:35.648Z,17.20
2019-02-19T15:46:04.626Z,16.33
2019-02-19T15:48:42.524Z,15.90
2019-02-19T15:51:13.942Z,13.77
2019-02-19T15:53:59.882Z,17.73
2019-02-19T15:56:44.046Z,17.10
2019-02-19T15:59:25.027Z,16.13
2019-02-19T16:01:59.922Z,15.83
2019-02-19T16:04:45.352Z,15.17
2019-02-19T16:07:14.720Z,16.37
2019-02-19T16:09:46.374Z,16.27
2019-02-19T16:12:24.405Z,18.80
2019-02-19T16:14:56.103Z,18.63
2019-02-19T16:23:12.868Z,16.83
2019-02-19T16:25:41.787Z,16.53
2019-02-19T16:28:13.672Z,18.13
2019-02-19T16:30:43.359Z,14.13
2019-02-19T16:33:15.386Z,18.53
2019-02-19T16:35:59.549Z,19.07
2019-02-19T16:38:44.949Z,19.23
2019-02-19T16:41:14.258Z,19.93
2019-02-19T16:44:01.194Z,16.97
2019-02-19T16:46:39.352Z,15.80
2019-02-19T16:49:24.899Z,17.13
2019-02-19T16:51:54.070Z,17.50
2019-02-19T16:54:25.620Z,23.37
2019-02-19T16:56:54.471Z,22.60
2019-02-19T16:59:27.021Z,21.10
2019-02-19T17:01:58.853Z,18.33
2019-02-19T17:04:27.800Z,18.27
2019-02-19T17:06:59.194Z,20.33
2019-02-19T17:09:28.092Z,21.03
2019-02-19T17:12:12.118Z,19.87
2019-02-19T17:14:40.996Z,19.97
2019-02-19T17:17:25.037Z,20.07
2019-02-19T17:20:05.590Z,23.07
2019-02-19T17:22:40.537Z,22.47
2019-02-19T17:25:15.444Z,23.97
2019-02-19T17:28:01.036Z,23.53
2019-02-19T17:30:38.841Z,23.07
2019-02-19T17:33:07.777Z,22.27
2019-02-19T17:35:36.647Z,22.20
2019-02-19T17:38:17.716Z,27.27
2019-02-19T17:41:02.958Z,23.77
2019-02-19T17:43:40.757Z,24.17
2019-02-19T17:46:09.637Z,25.57
2019-02-19T17:48:41.537Z,27.53
2019-02-19T17:51:22.477Z,26.57
2019-02-19T17:53:51.357Z,22.60
2019-02-19T17:56:29.179Z,25.87
2019-02-19T17:59:01.117Z,24.17
2019-02-19T18:01:30.059Z,22.27
2019-02-19T18:04:01.776Z,21.47
2019-02-19T18:06:47.369Z,21.80
2019-02-19T18:09:22.249Z,25.27
2019-02-19T18:12:00.389Z,23.27
2019-02-19T18:14:45.710Z,21.53
2019-02-19T18:17:23.771Z,23.80
2019-02-19T18:19:50.929Z,26.27
2019-02-19T18:22:18.189Z,26.13
2019-02-19T18:24:45.410Z,22.67
2019-02-19T18:27:12.529Z,22.70
2019-02-19T18:29:39.729Z,22.87
2019-02-19T18:32:06.850Z,26.47
2019-02-19T18:34:33.910Z,24.23
2019-02-19T18:37:20.790Z,24.10
2019-02-19T18:39:48.089Z,25.67
2019-02-19T18:42:15.173Z,24.23
2019-02-19T18:44:42.270Z,25.90
2019-02-19T18:47:09.371Z,26.20
2019-02-19T18:49:36.506Z,23.87
2019-02-19T18:52:03.614Z,24.53
2019-02-19T18:54:30.711Z,27.13
2019-02-19T18:56:57.803Z,29.17
2019-02-19T18:59:24.963Z,30.07
2019-02-19T19:01:52.057Z,26.27
2019-02-19T19:04:19.165Z,23.70
2019-02-19T19:06:46.281Z,24.20
2019-02-19T19:09:13.417Z,23.97
2019-02-19T19:11:42.021Z,27.63
2019-02-19T19:14:09.416Z,25.20
2019-02-19T19:16:36.537Z,26.20
2019-02-19T19:19:03.677Z,24.67
2019-02-19T19:21:30.857Z,25.70
2019-02-19T19:23:57.998Z,25.03
2019-02-19T19:26:25.141Z,24.80
2019-02-19T19:28:52.220Z,25.67
2019-02-19T19:31:19.460Z,23.13
2019-02-19T19:33:46.541Z,29.20
2019-02-19T19:36:13.701Z,32.00
2019-02-19T19:38:40.821Z,27.33
2019-02-19T19:41:07.974Z,32.33
2019-02-19T19:43:37.179Z,29.90
2019-02-19T19:46:04.100Z,24.93
2019-02-19T19:48:31.663Z,29.50
2019-02-19T19:50:58.785Z,27.43
2019-02-19T19:53:25.861Z,25.37
2019-02-19T19:55:53.082Z,26.83
2019-02-19T19:58:20.154Z,30.80
2019-02-19T20:00:47.261Z,33.30
2019-02-19T20:03:14.401Z,26.53
2019-02-19T20:05:41.580Z,30.73
2019-02-19T20:08:08.686Z,29.00
2019-02-19T20:10:35.843Z,25.53
2019-02-19T20:13:03.081Z,26.03
2019-02-19T20:15:30.220Z,27.50
2019-02-19T20:17:57.323Z,27.27
2019-02-19T20:20:24.481Z,31.63
2019-02-19T20:22:51.621Z,32.67
2019-02-19T20:25:18.764Z,31.83
2019-02-19T20:27:45.921Z,31.30
2019-02-19T20:30:15.100Z,30.70
2019-02-19T20:32:42.241Z,36.07
2019-02-19T20:35:10.163Z,41.50
2019-02-19T20:37:37.724Z,37.00
2019-02-19T20:40:07.846Z,36.13
2019-02-19T20:42:35.061Z,39.47
2019-02-19T20:45:02.541Z,37.20
2019-02-19T20:47:29.640Z,36.40
2019-02-19T20:49:56.721Z,33.57
2019-02-19T20:52:23.864Z,34.60
2019-02-19T20:54:51.002Z,38.37
2019-02-19T20:57:18.121Z,37.20
2019-02-19T20:59:45.242Z,34.40
2019-02-19T21:02:12.441Z,37.67
2019-02-19T21:04:39.561Z,40.33
2019-02-19T21:07:06.634Z,34.23
2019-02-19T21:09:43.202Z,35.90
2019-02-19T21:12:02.761Z,38.77
2019-02-19T21:14:29.880Z,39.33
2019-02-19T21:16:57.041Z,44.30
2019-02-19T21:19:24.220Z,36.90
2019-02-19T21:21:51.347Z,46.33
2019-02-19T21:24:18.461Z,41.07
2019-02-19T21:26:45.630Z,35.83
2019-02-19T21:29:12.740Z,44.70
2019-02-19T21:31:40.415Z,41.93
2019-02-19T21:34:07.580Z,46.40
2019-02-19T21:36:34.742Z,40.20
2019-02-19T21:39:01.901Z,34.23
2019-02-19T21:41:29.061Z,36.20
2019-02-19T21:43:56.181Z,33.13
2019-02-19T21:46:23.380Z,33.60
2019-02-19T21:48:50.520Z,34.73
2019-02-19T21:51:17.700Z,34.33
2019-02-19T21:53:44.840Z,30.23
2019-02-19T21:56:13.701Z,31.83
2019-02-19T21:58:40.901Z,33.63
2019-02-19T22:01:08.283Z,38.73
2019-02-19T22:03:35.432Z,35.57
2019-02-19T22:06:02.620Z,33.60
2019-02-19T22:08:29.720Z,31.10
2019-02-19T22:10:56.880Z,28.73
2019-02-19T22:13:24.026Z,26.77
2019-02-19T22:15:51.200Z,27.63
2019-02-19T22:18:18.347Z,27.97
2019-02-19T22:20:49.781Z,28.10
2019-02-19T22:23:16.904Z,37.77
2019-02-19T22:25:44.080Z,33.63
2019-02-19T22:28:11.240Z,31.10
2019-02-19T22:30:38.300Z,27.97
2019-02-19T22:33:05.400Z,38.13
2019-02-19T22:35:32.480Z,32.17
2019-02-19T22:37:59.563Z,33.13
2019-02-19T22:40:26.690Z,29.17
2019-02-19T22:42:53.954Z,32.63
2019-02-19T22:45:21.134Z,30.33
2019-02-19T22:47:53.417Z,31.80
2019-02-19T22:50:17.354Z,34.43
2019-02-19T22:52:44.574Z,33.20
2019-02-19T22:55:16.208Z,34.23
2019-02-19T22:57:43.394Z,33.83
2019-02-19T23:00:26.374Z,33.17
2019-02-19T23:02:53.634Z,31.23
2019-02-19T23:05:20.813Z,35.50
2019-02-19T23:07:47.993Z,31.17
2019-02-19T23:10:15.174Z,34.70
2019-02-19T23:12:42.494Z,27.63
2019-02-19T23:15:09.733Z,30.17
2019-02-19T23:17:36.853Z,36.37
2019-02-19T23:20:05.514Z,30.90
2019-02-19T23:22:32.645Z,29.77
2019-02-19T23:24:59.853Z,28.07
2019-02-19T23:27:27.009Z,27.83
2019-02-19T23:29:54.063Z,30.70
2019-02-19T23:32:21.242Z,27.93
2019-02-19T23:34:50.651Z,25.23
2019-02-19T23:37:17.866Z,29.13
2019-02-19T23:39:44.963Z,29.63
2019-02-19T23:42:12.103Z,27.97
2019-02-19T23:44:39.202Z,28.70
2019-02-19T23:47:06.325Z,26.33
2019-02-19T23:49:33.403Z,25.03
2019-02-19T23:52:00.763Z,29.33
2019-02-19T23:54:27.862Z,29.80
2019-02-19T23:56:54.942Z,29.20
2019-02-19T23:59:22.043Z,26.67
